Terminal Aerodrome Forecast
Issued by NWS

Home | Current Version | Previous Version | Text Only | Print | Product List | Glossary On
Versions: 1 2 3 4 5 6 7 8 9 10 11 12 13
000
FTUS45 KTFX 300520
TAFBZN
TAF
KBZN 300520Z 3006/0106 14007KT P6SM SCT080 BKN180
     FM301200 VRB05KT P6SM VCSH SCT040 OVC070
      TEMPO 3014/3018 -SHRA BKN040
     FM302000 28010G18KT P6SM VCSH SCT035 OVC060 PROB30 3021/0103
      -SHRA BKN035=

USA.gov is the U.S. government's official web portal to all federal, state and local government web resources and services.